»·PEaware :: AAR284 KLAX-KSFO

AAR284 :: KLAX-KSFO

FLIGHT INFORMATION

Flight Status: Arrived
Operator:
Asiana Airlines
More flights by this operator :: More flights under this callsign
Pilot: Rj Lopez (509)
Aircraft: BOEING 747-400 (WINGLETS)
(B744)
More flights by this aircraft type
Origin: KLAX Los Angeles Intl
United States
Destination: KSFO San Francisco Intl
United States
More flights between these airports :: More routes between these airports
Route: +VTU5 RZS J501 BSR BSR2
File this flight plan on PilotEdge
Remarks: B744 / L
Altitude:
(Current/Filed)
32,000ft
Speed:
(Current/Filed)
456kts
Departed: 08-Jul-14 03:12 PM
Arrived: 08-Jul-14 04:37 PM
Distance/Time
Traveled:
294nm/1:25
Distance/Time
To Go:
Arrived

Flight Plot

Page will automatically refresh every two minutes.


Map Options




Map Legend


Flown Route
Filed Route
Departure Airport
Arrival Airport
Navaid (VOR, NDB)
Fix

Horizontal Profiles

Position Reports

Time Latitude Longitude Heading Altitude Ground
Speed
08-Jul-14 15:10 36.047170 -115.294901 211 5904ft 291kts
08-Jul-14 15:11 36.047170 -115.294901 211 5904ft 291kts
08-Jul-14 15:12 36.047170 -115.294901 211 5904ft 291kts
08-Jul-14 15:13 36.047170 -115.294901 211 5904ft 291kts
08-Jul-14 15:14 36.047170 -115.294901 211 5904ft 291kts
08-Jul-14 15:15 36.047170 -115.294901 211 5904ft 291kts
08-Jul-14 15:16 36.047170 -115.294901 211 5904ft 291kts
08-Jul-14 15:17 36.047170 -115.294901 211 5904ft 291kts
08-Jul-14 15:18 36.047170 -115.294901 211 5904ft 291kts
08-Jul-14 15:19 36.047170 -115.294901 211 5904ft 291kts
08-Jul-14 15:20 36.047170 -115.294901 211 5904ft 291kts
08-Jul-14 15:21 36.047170 -115.294901 211 5904ft 291kts
08-Jul-14 15:22 36.047170 -115.294901 211 5904ft 291kts
08-Jul-14 15:23 36.047170 -115.294901 211 5904ft 291kts
08-Jul-14 15:24 36.047170 -115.294901 211 5904ft 291kts
08-Jul-14 15:25 36.047170 -115.294901 211 5904ft 291kts
08-Jul-14 15:26 33.933890 -118.390782 234 138ft 0kts
08-Jul-14 15:27 33.933890 -118.390782 234 138ft 0kts
08-Jul-14 15:28 33.933890 -118.390782 234 138ft 0kts
08-Jul-14 15:29 33.933890 -118.390782 234 138ft 0kts
08-Jul-14 15:30 33.933890 -118.390782 234 138ft 0kts
08-Jul-14 15:31 33.933890 -118.390782 234 138ft 0kts
08-Jul-14 15:32 33.933890 -118.390782 234 138ft 0kts
08-Jul-14 15:33 33.933890 -118.390782 234 138ft 0kts
08-Jul-14 15:34 33.933890 -118.390782 234 138ft 0kts
08-Jul-14 15:35 33.933890 -118.390782 234 138ft 0kts
08-Jul-14 15:36 33.933890 -118.390782 234 138ft 0kts
08-Jul-14 15:37 33.933890 -118.390782 234 138ft 0kts
08-Jul-14 15:38 33.933890 -118.390783 233 138ft 0kts
08-Jul-14 15:39 33.933889 -118.390783 233 138ft 0kts
08-Jul-14 15:40 33.933889 -118.390784 233 138ft 0kts
08-Jul-14 15:41 33.934209 -118.390267 233 138ft 2kts
08-Jul-14 15:42 33.934408 -118.389946 233 138ft 1kts
08-Jul-14 15:43 33.935433 -118.388022 56 138ft 19kts
08-Jul-14 15:44 33.935918 -118.384744 83 138ft 0kts
08-Jul-14 15:45 33.936292 -118.383027 26 138ft 8kts
08-Jul-14 15:46 33.937242 -118.383306 277 138ft 2kts
08-Jul-14 15:47 33.933493 -118.421020 263 1314ft 179kts
08-Jul-14 15:48 33.926125 -118.491630 262 4139ft 260kts
08-Jul-14 15:49 33.938632 -118.594270 295 5257ft 266kts
08-Jul-14 15:50 33.973153 -118.658109 307 7085ft 276kts
08-Jul-14 15:51 34.021039 -118.732598 306 8723ft 286kts
08-Jul-14 15:52 34.062965 -118.816081 300 10751ft 304kts
08-Jul-14 15:53 34.109874 -118.916871 298 12666ft 368kts
08-Jul-14 15:54 34.163085 -119.024989 304 15348ft 383kts
08-Jul-14 15:55 34.226410 -119.111525 310 18824ft 392kts
08-Jul-14 15:56 34.299596 -119.217855 308 22159ft 427kts
08-Jul-14 15:57 34.372697 -119.336702 304 25407ft 451kts
08-Jul-14 15:58 34.452488 -119.492861 297 28426ft 477kts
08-Jul-14 15:59 34.499297 -119.616408 288 30404ft 488kts
08-Jul-14 16:00 34.557556 -119.763779 317 31990ft 493kts
08-Jul-14 16:01 34.674337 -119.851103 327 32009ft 492kts
08-Jul-14 16:02 34.790837 -119.938621 325 32022ft 491kts
08-Jul-14 16:03 34.903893 -120.032243 322 32017ft 490kts
08-Jul-14 16:04 35.012503 -120.133495 318 32024ft 490kts
08-Jul-14 16:05 35.114784 -120.243588 314 32027ft 488kts
08-Jul-14 16:06 35.208254 -120.364279 307 32025ft 489kts
08-Jul-14 16:07 35.287003 -120.499661 297 32023ft 486kts
08-Jul-14 16:08 35.336107 -120.652362 286 32020ft 482kts
08-Jul-14 16:09 35.424486 -120.774948 311 31995ft 488kts
08-Jul-14 16:10 35.530174 -120.880680 316 31987ft 489kts
08-Jul-14 16:11 35.644835 -120.972174 326 31968ft 491kts
08-Jul-14 16:12 35.760967 -121.062489 324 31945ft 490kts
08-Jul-14 16:13 35.872285 -121.159753 320 31945ft 489kts
08-Jul-14 16:14 35.977756 -121.266054 316 31942ft 490kts
08-Jul-14 16:15 36.075116 -121.383930 309 31958ft 488kts
08-Jul-14 16:16 36.157154 -121.517071 299 31773ft 484kts
08-Jul-14 16:17 36.230415 -121.656108 306 30527ft 479kts
08-Jul-14 16:18 36.330076 -121.762714 320 27776ft 468kts
08-Jul-14 16:19 36.434446 -121.854245 331 25374ft 453kts
08-Jul-14 16:20 36.550537 -121.898980 345 24238ft 409kts
08-Jul-14 16:21 36.656163 -121.933481 344 22828ft 386kts
08-Jul-14 16:22 36.761336 -121.959640 348 20802ft 381kts
08-Jul-14 16:23 36.864964 -121.988877 346 17702ft 405kts
08-Jul-14 16:24 36.972292 -122.019573 349 15878ft 383kts
08-Jul-14 16:25 37.075293 -122.045694 344 12557ft 370kts
08-Jul-14 16:26 37.174364 -122.068375 350 9570ft 352kts
08-Jul-14 16:27 37.259666 -122.090616 346 8301ft 288kts
08-Jul-14 16:28 37.335282 -122.112982 345 7655ft 251kts
08-Jul-14 16:29 37.402231 -122.132229 345 6024ft 241kts
08-Jul-14 16:30 37.466401 -122.150825 345 4536ft 230kts
08-Jul-14 16:31 37.523987 -122.173339 333 3314ft 205kts
08-Jul-14 16:32 37.555801 -122.217774 296 2526ft 142kts
08-Jul-14 16:33 37.573152 -122.261441 297 1703ft 138kts
08-Jul-14 16:34 37.591065 -122.303417 296 1053ft 137kts
08-Jul-14 16:35 37.607472 -122.342863 297 268ft 124kts
08-Jul-14 16:36 37.619321 -122.370983 297 24ft 39kts
08-Jul-14 16:37 37.622048 -122.375745 42 24ft 4kts
08-Jul-14 16:38 37.622686 -122.375459 301 24ft 4kts
08-Jul-14 16:39 37.624381 -122.379414 297 24ft 17kts
08-Jul-14 16:40 37.626204 -122.383787 297 24ft 11kts
08-Jul-14 16:41 37.628963 -122.390368 297 24ft 18kts
08-Jul-14 16:42 37.630693 -122.392822 8 24ft 17kts
08-Jul-14 16:43 37.632256 -122.392077 295 24ft 0kts
08-Jul-14 16:44 37.632182 -122.392495 242 24ft 0kts
08-Jul-14 16:45 37.632182 -122.392495 242 24ft 0kts
08-Jul-14 16:46 37.632182 -122.392495 242 24ft 0kts
08-Jul-14 16:47 37.632182 -122.392495 242 24ft 0kts
08-Jul-14 16:48 37.632182 -122.392495 242 24ft 0kts
08-Jul-14 16:49 37.632182 -122.392495 242 24ft 0kts
08-Jul-14 16:50 37.632182 -122.392495 242 24ft 0kts

Navigation Log

Ident Type
1. KLAX Airport
2. VTU Navaid
3. RZS Navaid
4. PEGRS Fix
5. ZONAL Fix
6. BSR Navaid
7. CARME Fix
8. ANJEE Fix
9. SKUNK Fix
10. BOLDR Fix
11. MENLO Fix
12. KSFO Airport